Terminal Aerodrome Forecast
Issued by NWS

Home | Current Version | Previous Version | Text Only | Print | Product List | Glossary On
Versions: 1 2 3 4 5 6 7 8 9 10 11 12 13 14 15 16
000
FTUS41 KAKQ 190830 AAB
TAFPHF
TAF AMD
KPHF 190830Z 1909/2006 22016G25KT P6SM -RA OVC080 WS020/21050KT
     FM191100 25022G31KT P6SM VCSH BKN045
     FM191400 28019G30KT P6SM SCT200
     FM200100 30014G21KT P6SM SKC=

USA.gov is the U.S. government's official web portal to all federal, state and local government web resources and services.